Time;durP1;ratioP1;P1;durP2;ratioP2;P2;SDS_P1;SDS_P2;PMS_P1;PMS_P2;Temp;Humidity;BMP_temperature;BMP_pressure;BME280_temperature;BME280_humidity;BME280_pressure;Samples;Min_cycle;Max_cycle;Signal;HPM_P1;HPM_P2
2021/06/21 00:02:19;;;;;;;2.05;0.70;;;19.50;99.90;;;;;;5034755;28;20691;-75
2021/06/21 00:04:45;;;;;;;4.50;0.70;;;19.60;99.90;;;;;;5034583;28;20311;-74
2021/06/21 00:07:12;;;;;;;1.63;1.23;;;19.50;99.90;;;;;;5034552;28;20533;-75
2021/06/21 00:09:40;;;;;;;0.98;0.75;;;19.60;99.90;;;;;;5035017;28;20859;-74
2021/06/21 00:12:08;;;;;;;0.70;0.70;;;19.70;99.90;;;;;;5034833;28;20259;-74
2021/06/21 00:14:36;;;;;;;1.30;0.63;;;19.70;99.90;;;;;;5034383;28;20865;-75
2021/06/21 00:17:03;;;;;;;1.10;0.70;;;19.60;99.90;;;;;;5034328;28;20658;-74
2021/06/21 00:19:30;;;;;;;0.70;0.65;;;19.60;99.90;;;;;;5034333;28;20287;-74
2021/06/21 00:21:58;;;;;;;1.60;0.70;;;19.50;99.90;;;;;;5034108;28;20207;-74
2021/06/21 00:24:25;;;;;;;1.55;0.70;;;19.40;99.90;;;;;;5034274;28;20259;-74
2021/06/21 00:26:53;;;;;;;1.05;0.60;;;19.50;99.90;;;;;;5034484;28;20746;-74
2021/06/21 00:29:20;;;;;;;1.85;0.50;;;19.50;99.90;;;;;;5035150;28;20200;-75
2021/06/21 00:31:48;;;;;;;1.63;0.70;;;19.50;99.90;;;;;;5034284;28;20639;-74
2021/06/21 00:34:15;;;;;;;1.88;0.60;;;19.50;99.90;;;;;;5034345;28;20623;-74
2021/06/21 00:36:42;;;;;;;2.08;0.70;;;19.60;99.90;;;;;;5034910;28;20209;-74
2021/06/21 00:39:10;;;;;;;1.48;0.95;;;19.70;99.90;;;;;;5034495;28;20566;-74
2021/06/21 00:41:38;;;;;;;0.73;0.73;;;19.70;99.90;;;;;;5033630;28;20236;-74
2021/06/21 00:44:06;;;;;;;0.50;0.32;;;19.70;99.90;;;;;;5033789;28;21036;-74
2021/06/21 00:46:33;;;;;;;1.52;0.50;;;19.50;99.90;;;;;;5034188;28;20294;-74
2021/06/21 00:49:01;;;;;;;1.90;1.00;;;19.40;99.90;;;;;;5034328;28;20240;-74
2021/06/21 00:51:29;;;;;;;2.15;0.73;;;19.50;99.90;;;;;;5033833;28;20447;-75
2021/06/21 00:53:56;;;;;;;1.38;0.80;;;19.50;99.90;;;;;;5034015;28;20224;-74
2021/06/21 00:56:23;;;;;;;2.90;0.80;;;19.50;99.90;;;;;;5034091;28;20204;-74
2021/06/21 00:58:52;;;;;;;1.20;0.63;;;19.40;99.90;;;;;;5033973;28;20688;-74
2021/06/21 01:01:18;;;;;;;2.30;0.77;;;19.20;99.90;;;;;;5033676;28;20300;-74
2021/06/21 01:03:45;;;;;;;0.95;0.70;;;19.00;99.90;;;;;;5033741;28;20210;-73
2021/06/21 01:06:13;;;;;;;1.55;1.00;;;19.00;99.90;;;;;;5033305;28;20207;-74
2021/06/21 01:08:40;;;;;;;2.05;0.90;;;19.10;99.90;;;;;;5033859;28;20294;-75
2021/06/21 01:11:08;;;;;;;2.92;0.80;;;19.20;99.90;;;;;;5033420;28;20636;-74
2021/06/21 01:13:45;;;;;;;1.40;0.80;;;19.10;99.90;;;;;;5033645;28;20242;-74
2021/06/21 01:16:18;;;;;;;1.75;1.00;;;19.10;99.90;;;;;;5033733;28;20188;-74
2021/06/21 01:18:52;;;;;;;2.05;0.88;;;19.10;99.90;;;;;;5033728;28;20215;-74
2021/06/21 01:22:07;;;;;;;1.10;0.90;;;19.10;99.90;;;;;;5033307;28;20302;-74
2021/06/21 01:25:08;;;;;;;1.63;0.93;;;19.20;99.90;;;;;;5037417;28;20581;-74
2021/06/21 01:27:56;;;;;;;2.35;0.55;;;19.10;99.90;;;;;;5037657;28;20530;-75
2021/06/21 01:30:27;;;;;;;1.48;1.00;;;19.20;99.90;;;;;;5034586;28;20204;-75
2021/06/21 01:32:59;;;;;;;2.65;0.80;;;19.20;99.90;;;;;;5037685;28;20218;-74
2021/06/21 01:35:30;;;;;;;2.28;0.65;;;19.20;99.90;;;;;;5037710;28;20246;-75
2021/06/21 01:38:01;;;;;;;1.05;0.80;;;19.20;99.90;;;;;;5037231;28;20199;-74
2021/06/21 01:40:31;;;;;;;1.70;0.75;;;19.10;99.90;;;;;;5037380;28;20296;-74
2021/06/21 01:43:04;;;;;;;3.08;1.00;;;19.10;99.90;;;;;;5037642;28;20258;-75
2021/06/21 01:45:32;;;;;;;0.75;0.75;;;19.10;99.90;;;;;;5037651;28;20307;-75
2021/06/21 01:48:03;;;;;;;1.55;1.00;;;19.10;99.90;;;;;;5038056;28;20211;-75
2021/06/21 01:50:31;;;;;;;1.77;0.90;;;19.10;99.90;;;;;;5037166;28;20207;-74
2021/06/21 01:53:05;;;;;;;1.30;1.05;;;19.10;99.90;;;;;;5037578;28;20208;-75
2021/06/21 01:55:34;;;;;;;1.35;1.20;;;19.10;99.90;;;;;;5037316;28;20318;-74
2021/06/21 01:58:01;;;;;;;1.95;1.15;;;19.10;99.90;;;;;;5037708;28;20646;-74
2021/06/21 02:00:29;;;;;;;1.15;0.98;;;19.10;99.90;;;;;;5037447;28;20207;-75
2021/06/21 02:03:00;;;;;;;1.42;1.27;;;19.20;99.90;;;;;;5037611;28;20211;-75
2021/06/21 02:05:29;;;;;;;1.55;0.85;;;19.30;99.90;;;;;;5037880;28;20311;-75
2021/06/21 02:07:57;;;;;;;0.80;0.75;;;19.30;99.90;;;;;;5037257;28;20215;-75
2021/06/21 02:10:24;;;;;;;1.60;0.90;;;19.40;99.90;;;;;;5037044;28;20204;-75
2021/06/21 02:12:53;;;;;;;1.27;0.80;;;19.40;99.90;;;;;;5037155;28;20199;-74
2021/06/21 02:15:21;;;;;;;2.92;1.27;;;19.40;99.90;;;;;;5036822;28;20629;-74
2021/06/21 02:17:49;;;;;;;1.90;0.95;;;19.40;99.90;;;;;;5037091;28;20298;-75
2021/06/21 02:20:18;;;;;;;2.20;0.93;;;19.40;99.90;;;;;;5036815;28;20294;-75
2021/06/21 02:22:46;;;;;;;1.15;1.00;;;19.40;99.90;;;;;;5036745;28;20283;-75
2021/06/21 02:25:15;;;;;;;1.35;0.98;;;19.30;99.90;;;;;;5036664;28;20735;-75
2021/06/21 02:27:42;;;;;;;3.10;1.40;;;19.30;99.90;;;;;;5037148;28;20206;-75
2021/06/21 02:30:11;;;;;;;1.25;0.80;;;19.30;99.90;;;;;;5036634;28;20214;-75
2021/06/21 02:32:41;;;;;;;4.55;1.45;;;19.20;99.90;;;;;;5036670;28;20216;-75
2021/06/21 02:35:10;;;;;;;1.60;1.45;;;19.20;99.90;;;;;;5036269;28;20318;-74
2021/06/21 02:37:39;;;;;;;1.63;0.90;;;19.20;99.90;;;;;;5036696;28;20563;-75
2021/06/21 02:40:09;;;;;;;4.82;1.23;;;19.00;99.90;;;;;;5036203;28;20290;-75
2021/06/21 02:42:35;;;;;;;0.98;0.60;;;18.80;99.90;;;;;;5036342;28;20290;-74
2021/06/21 02:45:03;;;;;;;2.58;1.30;;;18.80;99.90;;;;;;5036268;28;20231;-75
2021/06/21 02:47:30;;;;;;;2.55;0.98;;;18.90;99.90;;;;;;5036073;28;20208;-75
2021/06/21 02:49:57;;;;;;;1.65;0.85;;;18.90;99.90;;;;;;5036101;28;20291;-75
2021/06/21 02:52:32;;;;;;;4.32;0.90;;;18.90;99.90;;;;;;5036356;28;20211;-75
2021/06/21 02:55:09;;;;;;;3.17;1.80;;;19.00;99.90;;;;;;5036258;28;20314;-75
2021/06/21 02:57:45;;;;;;;2.67;0.95;;;19.00;99.90;;;;;;5036771;28;20295;-75
2021/06/21 03:00:14;;;;;;;0.90;0.90;;;19.00;99.90;;;;;;5036138;28;20227;-74
2021/06/21 03:02:42;;;;;;;2.60;0.90;;;19.00;99.90;;;;;;5036358;28;20263;-75
2021/06/21 03:05:11;;;;;;;3.72;1.10;;;19.10;99.90;;;;;;5036579;28;20220;-75
2021/06/21 03:07:39;;;;;;;1.55;0.55;;;19.10;99.90;;;;;;5036345;28;20204;-74
2021/06/21 03:10:09;;;;;;;7.57;1.20;;;19.10;99.90;;;;;;5036477;28;20206;-75
2021/06/21 03:12:38;;;;;;;1.33;1.00;;;19.10;99.90;;;;;;5036412;28;20299;-74
2021/06/21 03:15:06;;;;;;;3.30;0.98;;;19.00;99.90;;;;;;5035717;28;20317;-74
2021/06/21 03:17:35;;;;;;;1.08;0.80;;;18.90;99.90;;;;;;5035850;28;20324;-74
2021/06/21 03:20:03;;;;;;;1.10;1.00;;;18.80;99.90;;;;;;5035449;28;20239;-75
2021/06/21 03:22:30;;;;;;;2.03;1.00;;;18.70;99.90;;;;;;5035598;28;20621;-74
2021/06/21 03:24:57;;;;;;;2.95;1.20;;;18.60;99.90;;;;;;5035445;28;20706;-74
2021/06/21 03:27:34;;;;;;;2.47;1.45;;;18.40;99.90;;;;;;5035229;28;20199;-74
2021/06/21 03:30:04;;;;;;;1.42;1.00;;;18.30;99.90;;;;;;5035312;28;20210;-75
2021/06/21 03:32:33;;;;;;;2.42;1.13;;;18.30;99.90;;;;;;5035240;28;20284;-74
2021/06/21 03:35:02;;;;;;;2.00;1.15;;;18.40;99.90;;;;;;5035746;28;20226;-74
2021/06/21 03:37:29;;;;;;;1.27;0.80;;;18.60;99.90;;;;;;5035809;28;20208;-74
2021/06/21 03:39:57;;;;;;;3.83;0.90;;;18.60;99.90;;;;;;5035109;28;20562;-74
2021/06/21 03:42:24;;;;;;;1.40;0.80;;;18.60;99.90;;;;;;5035358;28;20208;-74
2021/06/21 03:44:53;;;;;;;4.85;2.90;;;18.70;99.90;;;;;;5034599;28;20642;-74
2021/06/21 03:47:20;;;;;;;1.02;0.93;;;18.80;99.90;;;;;;5034922;28;20243;-75
2021/06/21 03:49:49;;;;;;;6.35;1.50;;;18.70;99.90;;;;;;5035304;28;20207;-76
2021/06/21 03:52:17;;;;;;;3.42;1.00;;;18.50;99.90;;;;;;5034959;28;20290;-74
2021/06/21 03:54:44;;;;;;;3.20;1.20;;;18.50;99.90;;;;;;5034848;28;20255;-74
2021/06/21 03:57:12;;;;;;;2.42;1.20;;;18.30;99.90;;;;;;5035057;28;20296;-74
2021/06/21 03:59:38;;;;;;;1.65;0.98;;;18.30;99.90;;;;;;5034736;28;20570;-73
2021/06/21 04:02:07;;;;;;;2.45;0.90;;;18.30;99.90;;;;;;5034484;28;20208;-74
2021/06/21 04:04:34;;;;;;;1.90;0.93;;;18.30;99.90;;;;;;5034516;28;20227;-74
2021/06/21 04:07:01;;;;;;;3.40;1.75;;;18.50;99.90;;;;;;5034606;28;20295;-74
2021/06/21 04:09:27;;;;;;;1.58;0.80;;;18.60;99.90;;;;;;5034416;28;20680;-74
2021/06/21 04:11:54;;;;;;;2.10;1.15;;;18.50;99.90;;;;;;5034314;28;20295;-74
2021/06/21 04:14:21;;;;;;;2.40;1.30;;;18.60;99.90;;;;;;5034346;28;20228;-74
2021/06/21 04:16:48;;;;;;;1.45;1.08;;;18.70;99.90;;;;;;5034250;28;20234;-74
2021/06/21 04:19:16;;;;;;;1.15;0.80;;;18.70;99.90;;;;;;5034315;28;20310;-74
2021/06/21 04:21:43;;;;;;;2.05;1.45;;;18.80;99.90;;;;;;5033976;28;20212;-74
2021/06/21 04:24:10;;;;;;;3.50;1.17;;;18.90;99.90;;;;;;5034120;28;20227;-74
2021/06/21 04:26:37;;;;;;;3.17;1.73;;;18.90;99.90;;;;;;5034234;28;20617;-74
2021/06/21 04:29:05;;;;;;;1.30;1.02;;;18.90;99.90;;;;;;5034156;28;20213;-74
2021/06/21 04:31:32;;;;;;;0.90;0.90;;;18.90;99.90;;;;;;5033825;28;20216;-74
2021/06/21 04:33:59;;;;;;;2.47;1.70;;;19.00;99.90;;;;;;5033923;28;20211;-74
2021/06/21 04:36:27;;;;;;;1.55;1.00;;;19.00;99.90;;;;;;5034104;28;20231;-74
2021/06/21 04:38:54;;;;;;;3.25;0.98;;;19.00;99.90;;;;;;5033740;28;20295;-74
2021/06/21 04:41:21;;;;;;;3.35;1.05;;;19.00;99.90;;;;;;5033704;28;20291;-74
2021/06/21 04:43:48;;;;;;;2.63;0.85;;;19.00;99.90;;;;;;5033605;28;20295;-75
2021/06/21 04:46:15;;;;;;;2.38;1.30;;;19.10;99.90;;;;;;5034410;28;20202;-74
2021/06/21 04:48:43;;;;;;;3.25;0.95;;;19.10;99.90;;;;;;5033983;28;20210;-74
2021/06/21 04:51:10;;;;;;;1.50;1.40;;;19.10;99.90;;;;;;5033656;28;20200;-74
2021/06/21 04:53:38;;;;;;;2.28;1.10;;;19.10;99.90;;;;;;5033957;28;20846;-76
2021/06/21 04:56:05;;;;;;;2.50;1.10;;;19.10;99.90;;;;;;5033408;28;20316;-74
2021/06/21 04:58:34;;;;;;;4.05;2.30;;;19.10;99.90;;;;;;5033501;28;20292;-74
2021/06/21 05:01:02;;;;;;;1.45;1.35;;;19.10;99.90;;;;;;5033698;28;20303;-74
2021/06/21 05:03:28;;;;;;;4.70;1.40;;;19.10;99.90;;;;;;5033686;28;20208;-74
2021/06/21 05:05:56;;;;;;;1.65;1.13;;;19.10;99.90;;;;;;5033708;28;20307;-74
2021/06/21 05:08:23;;;;;;;3.20;1.30;;;19.10;99.90;;;;;;5033502;28;20214;-74
2021/06/21 05:10:51;;;;;;;3.97;1.27;;;19.10;99.90;;;;;;5033477;28;20564;-75
2021/06/21 05:13:18;;;;;;;2.05;1.00;;;19.10;99.90;;;;;;5033415;28;20207;-75
2021/06/21 05:15:45;;;;;;;3.53;0.98;;;19.10;99.90;;;;;;5033509;28;20235;-74
2021/06/21 05:18:12;;;;;;;4.68;1.70;;;19.10;99.90;;;;;;5033434;28;20294;-74
2021/06/21 05:20:38;;;;;;;1.20;1.10;;;19.10;99.90;;;;;;5033281;28;20290;-74
2021/06/21 05:23:05;;;;;;;2.88;1.02;;;19.20;99.90;;;;;;5033347;28;20339;-74
2021/06/21 05:25:33;;;;;;;1.42;1.33;;;19.30;99.90;;;;;;5033803;28;20227;-74
2021/06/21 05:28:02;;;;;;;1.43;1.23;;;19.40;99.90;;;;;;5033616;28;20593;-74
2021/06/21 05:30:29;;;;;;;1.17;0.93;;;19.40;99.90;;;;;;5033096;28;20452;-75
2021/06/21 05:32:56;;;;;;;2.00;0.80;;;19.50;99.90;;;;;;5033308;28;20483;-75
2021/06/21 05:35:23;;;;;;;0.93;0.80;;;19.60;99.90;;;;;;5032975;28;20581;-74
2021/06/21 05:37:50;;;;;;;1.85;1.10;;;19.60;99.90;;;;;;5033222;28;20537;-74
2021/06/21 05:40:18;;;;;;;1.73;1.00;;;19.70;99.90;;;;;;5032942;28;20742;-74
2021/06/21 05:42:45;;;;;;;1.90;0.77;;;19.70;99.90;;;;;;5033095;28;20452;-74
2021/06/21 05:45:15;;;;;;;1.50;0.87;;;19.80;99.90;;;;;;5015572;28;20503;-74
2021/06/21 05:47:42;;;;;;;2.70;1.10;;;19.90;99.90;;;;;;5033310;28;20444;-74
2021/06/21 05:50:10;;;;;;;2.73;0.80;;;19.80;99.90;;;;;;5032908;28;20490;-74
2021/06/21 05:52:37;;;;;;;2.20;0.83;;;19.90;99.90;;;;;;5033058;28;21024;-74
2021/06/21 05:55:04;;;;;;;6.43;3.47;;;19.90;99.90;;;;;;5033277;28;20491;-74
2021/06/21 05:57:32;;;;;;;1.00;0.90;;;20.00;99.90;;;;;;5033311;28;20501;-74
2021/06/21 05:59:59;;;;;;;1.90;1.10;;;20.00;99.90;;;;;;5033062;28;20832;-75
2021/06/21 06:02:27;;;;;;;2.13;1.37;;;20.10;99.90;;;;;;5033282;28;20483;-74
2021/06/21 06:04:54;;;;;;;0.90;0.73;;;20.30;99.90;;;;;;5033727;28;20542;-74
2021/06/21 06:07:21;;;;;;;1.00;1.00;;;20.30;99.90;;;;;;5033871;28;20788;-75
2021/06/21 06:09:49;;;;;;;1.87;0.90;;;20.30;99.90;;;;;;5037037;28;20458;-74
2021/06/21 06:12:16;;;;;;;1.50;0.90;;;20.30;99.90;;;;;;5037403;28;20502;-74
2021/06/21 06:14:43;;;;;;;1.90;0.93;;;20.30;99.90;;;;;;5036951;28;20479;-74
2021/06/21 06:17:10;;;;;;;1.17;1.07;;;20.20;99.90;;;;;;5037484;28;20576;-74
2021/06/21 06:19:39;;;;;;;2.53;1.90;;;20.20;99.90;;;;;;5037010;28;20483;-74
2021/06/21 06:22:07;;;;;;;3.37;1.23;;;20.30;99.90;;;;;;5036883;28;20477;-74
2021/06/21 06:24:34;;;;;;;1.30;0.90;;;20.30;99.90;;;;;;5037014;28;20465;-74
2021/06/21 06:27:01;;;;;;;2.00;0.90;;;20.30;99.90;;;;;;5037383;28;20526;-74
2021/06/21 06:29:30;;;;;;;2.00;0.70;;;20.30;99.90;;;;;;5036615;28;20539;-74
2021/06/21 06:31:57;;;;;;;0.97;0.80;;;20.20;99.90;;;;;;5036291;28;20460;-74
2021/06/21 06:34:25;;;;;;;1.93;1.10;;;20.20;99.90;;;;;;5036535;28;20560;-74
2021/06/21 06:36:54;;;;;;;1.00;1.00;;;20.20;99.90;;;;;;5035906;28;20571;-74
2021/06/21 06:39:21;;;;;;;1.00;1.00;;;20.20;99.90;;;;;;5036243;28;20448;-74
2021/06/21 06:41:48;;;;;;;2.50;1.50;;;20.20;99.90;;;;;;5036071;28;20528;-74
2021/06/21 06:44:15;;;;;;;0.83;0.73;;;20.20;99.90;;;;;;5036275;28;20469;-74
2021/06/21 06:46:42;;;;;;;3.13;1.00;;;20.20;99.90;;;;;;5036217;28;20442;-74
2021/06/21 06:49:09;;;;;;;3.37;0.97;;;20.40;99.90;;;;;;5035984;28;20875;-74
2021/06/21 06:51:40;;;;;;;2.10;1.00;;;20.60;99.90;;;;;;5035695;28;20540;-74
2021/06/21 06:54:19;;;;;;;1.80;1.10;;;20.60;99.90;;;;;;5036118;28;20959;-74
2021/06/21 06:56:59;;;;;;;1.23;0.90;;;20.60;99.90;;;;;;5035833;28;20561;-74
2021/06/21 06:59:30;;;;;;;2.47;1.60;;;20.70;99.90;;;;;;5035911;28;20461;-74
2021/06/21 07:01:57;;;;;;;2.50;1.80;;;20.90;99.90;;;;;;5035716;28;20456;-74
2021/06/21 07:04:25;;;;;;;1.07;0.93;;;21.30;99.90;;;;;;5035683;28;20459;-74
2021/06/21 07:06:51;;;;;;;2.20;0.80;;;21.70;99.90;;;;;;5035448;28;20537;-74
2021/06/21 07:09:20;;;;;;;1.30;1.20;;;22.00;99.90;;;;;;5035720;28;20944;-75
2021/06/21 07:11:50;;;;;;;1.23;0.90;;;22.10;99.90;;;;;;5035405;28;21012;-74
2021/06/21 07:14:17;;;;;;;1.90;1.27;;;22.40;99.90;;;;;;5035470;28;20478;-74
2021/06/21 07:16:45;;;;;;;1.53;1.30;;;22.50;99.90;;;;;;5035502;28;20525;-75
2021/06/21 07:19:12;;;;;;;0.90;0.80;;;22.60;99.90;;;;;;5034823;28;20947;-74
2021/06/21 07:21:39;;;;;;;1.53;1.00;;;22.60;99.90;;;;;;5034852;28;20443;-74
2021/06/21 07:24:07;;;;;;;1.77;1.30;;;22.60;99.90;;;;;;5035045;28;20557;-75
2021/06/21 07:26:36;;;;;;;2.27;1.50;;;22.70;99.90;;;;;;5035401;28;20866;-75
2021/06/21 07:29:04;;;;;;;1.50;0.83;;;22.60;99.90;;;;;;5035200;28;20922;-75
2021/06/21 07:31:31;;;;;;;1.57;0.80;;;22.60;99.90;;;;;;5035053;28;20460;-75
2021/06/21 07:33:58;;;;;;;1.40;1.30;;;22.60;99.90;;;;;;5035155;28;20443;-74
2021/06/21 07:36:25;;;;;;;1.30;0.90;;;22.70;99.90;;;;;;5035604;28;20561;-74
2021/06/21 07:38:52;;;;;;;3.20;0.97;;;22.80;99.90;;;;;;5035782;28;20858;-75
2021/06/21 07:41:19;;;;;;;1.90;0.80;;;22.80;99.90;;;;;;5035545;28;20879;-75
2021/06/21 07:43:49;;;;;;;1.53;1.00;;;22.90;99.90;;;;;;5036029;28;20457;-75
2021/06/21 07:46:15;;;;;;;1.03;0.80;;;23.20;99.90;;;;;;5035433;28;20952;-75
2021/06/21 07:48:42;;;;;;;1.30;1.00;;;23.60;99.90;;;;;;5035466;28;20448;-76
2021/06/21 07:51:10;;;;;;;3.37;1.40;;;24.10;99.90;;;;;;5035381;28;20449;-75
2021/06/21 07:53:38;;;;;;;1.10;1.00;;;24.60;99.90;;;;;;5035849;28;20541;-75
2021/06/21 07:56:05;;;;;;;3.23;1.20;;;25.40;99.90;;;;;;5035357;28;21031;-75
2021/06/21 07:58:32;;;;;;;1.57;1.23;;;26.20;99.90;;;;;;5035572;28;20920;-76
2021/06/21 08:01:01;;;;;;;1.00;0.93;;;26.80;99.50;;;;;;5035235;28;20542;-75
2021/06/21 08:03:28;;;;;;;2.03;1.20;;;27.20;97.70;;;;;;5035915;28;20522;-75
2021/06/21 08:05:55;;;;;;;1.30;1.20;;;27.40;98.20;;;;;;5036026;28;20561;-76
2021/06/21 08:08:22;;;;;;;5.67;3.70;;;27.40;97.70;;;;;;5036199;28;20450;-76
2021/06/21 08:10:48;;;;;;;1.90;1.37;;;27.70;96.50;;;;;;5035422;28;20447;-76
2021/06/21 08:13:15;;;;;;;1.00;0.90;;;28.00;97.00;;;;;;5035516;28;20481;-76
2021/06/21 08:15:42;;;;;;;1.90;1.07;;;28.60;94.40;;;;;;5034924;28;20556;-77
2021/06/21 08:18:10;;;;;;;1.53;0.90;;;29.40;92.10;;;;;;5034575;28;20984;-76
2021/06/21 08:20:42;;;;;;;3.17;1.13;;;30.30;90.80;;;;;;5034766;28;20443;-76
2021/06/21 08:23:08;;;;;;;0.73;0.73;;;30.30;91.00;;;;;;5034861;28;20490;-76
2021/06/21 08:25:35;;;;;;;1.03;0.93;;;30.70;84.60;;;;;;5035196;28;20477;-76
2021/06/21 08:28:02;;;;;;;1.43;1.00;;;30.80;82.50;;;;;;5034834;28;20536;-76
2021/06/21 08:30:30;;;;;;;1.40;1.10;;;30.70;89.60;;;;;;5034366;28;20816;-76
2021/06/21 08:32:57;;;;;;;1.50;1.40;;;30.60;86.90;;;;;;5034493;28;20622;-76
2021/06/21 08:35:25;;;;;;;1.17;0.93;;;30.70;83.90;;;;;;5034766;28;20556;-76
2021/06/21 08:37:52;;;;;;;1.00;1.00;;;31.00;82.60;;;;;;5034299;28;20481;-76
2021/06/21 08:40:21;;;;;;;2.77;0.97;;;31.00;77.20;;;;;;5033942;28;20820;-76
2021/06/21 08:42:48;;;;;;;1.23;1.10;;;31.30;73.70;;;;;;5034214;28;20497;-76
2021/06/21 08:45:15;;;;;;;1.03;0.93;;;31.80;71.60;;;;;;5034424;28;20550;-77
2021/06/21 08:47:43;;;;;;;1.33;1.10;;;32.10;68.60;;;;;;5034217;28;20534;-77
2021/06/21 08:50:12;;;;;;;1.00;1.00;;;32.60;67.90;;;;;;5034248;28;20450;-77
2021/06/21 08:52:42;;;;;;;0.97;0.90;;;33.50;63.70;;;;;;5034318;28;20439;-77
2021/06/21 08:55:11;;;;;;;3.07;1.10;;;34.40;59.10;;;;;;5034198;28;20835;-77
2021/06/21 08:57:40;;;;;;;1.17;1.07;;;35.40;55.60;;;;;;5034266;28;20562;-77
2021/06/21 09:00:10;;;;;;;0.90;0.90;;;36.80;54.30;;;;;;5034059;28;20485;-77
2021/06/21 09:02:37;;;;;;;1.00;1.00;;;38.00;48.50;;;;;;5034213;28;20538;-76
2021/06/21 09:05:07;;;;;;;1.70;1.30;;;37.10;48.20;;;;;;5033983;28;20478;-77
2021/06/21 09:07:34;;;;;;;0.67;0.67;;;36.30;48.80;;;;;;5033740;28;20924;-77
2021/06/21 09:10:05;;;;;;;2.50;1.23;;;35.50;50.90;;;;;;5033990;28;20537;-77
2021/06/21 09:12:33;;;;;;;1.00;1.00;;;35.60;49.60;;;;;;5034121;28;20921;-77
2021/06/21 09:15:07;;;;;;;1.40;1.10;;;36.70;48.50;;;;;;5034270;28;20471;-77
2021/06/21 09:17:37;;;;;;;0.97;0.80;;;37.50;46.50;;;;;;5034266;28;20565;-77
2021/06/21 09:20:07;;;;;;;1.10;1.00;;;38.80;45.80;;;;;;5034280;28;20485;-76
2021/06/21 09:22:37;;;;;;;2.10;1.00;;;39.60;45.90;;;;;;5034284;28;20446;-77
2021/06/21 09:25:09;;;;;;;1.40;0.97;;;39.70;45.40;;;;;;5034898;28;20512;-77
2021/06/21 09:27:39;;;;;;;1.70;1.60;;;40.10;43.00;;;;;;5034228;28;20947;-77
2021/06/21 09:30:08;;;;;;;1.43;1.33;;;40.50;40.80;;;;;;5033973;28;20455;-78
2021/06/21 09:32:41;;;;;;;1.00;1.00;;;39.80;39.20;;;;;;5033903;28;20525;-78
2021/06/21 09:35:10;;;;;;;1.80;0.90;;;40.00;42.90;;;;;;5033810;28;20470;-77
2021/06/21 09:37:46;;;;;;;2.43;1.30;;;39.30;41.50;;;;;;5034064;28;20533;-75
2021/06/21 09:40:30;;;;;;;1.10;1.00;;;39.90;40.50;;;;;;5034008;28;20455;-75
2021/06/21 09:43:17;;;;;;;1.10;1.10;;;40.90;37.40;;;;;;5035069;28;20446;-75
2021/06/21 09:46:01;;;;;;;1.13;1.13;;;41.00;37.60;;;;;;5038044;28;20904;-75
2021/06/21 09:48:31;;;;;;;1.07;1.07;;;41.60;36.70;;;;;;5037815;28;20525;-75
2021/06/21 09:50:58;;;;;;;1.70;1.00;;;41.30;36.60;;;;;;5037204;28;20447;-75
2021/06/21 09:53:25;;;;;;;2.10;1.10;;;40.40;39.70;;;;;;5037500;28;20841;-75
2021/06/21 09:55:53;;;;;;;1.30;1.20;;;40.70;38.30;;;;;;5036881;28;20980;-75
2021/06/21 09:58:22;;;;;;;1.33;1.23;;;40.10;36.60;;;;;;5037061;28;20505;-75
2021/06/21 10:00:50;;;;;;;1.50;1.40;;;39.00;38.70;;;;;;5037693;28;20864;-77
2021/06/21 10:03:19;;;;;;;5.00;1.43;;;38.70;41.40;;;;;;5038284;28;20537;-78
2021/06/21 10:06:03;;;;;;;2.20;1.00;;;39.50;39.60;;;;;;5038358;28;20557;-78
2021/06/21 10:08:41;;;;;;;1.10;1.10;;;40.30;37.30;;;;;;5037478;28;20984;-78
2021/06/21 10:11:28;;;;;;;1.30;1.20;;;40.10;39.30;;;;;;5037293;28;20446;-77
2021/06/21 10:13:55;;;;;;;3.23;1.50;;;39.20;40.20;;;;;;5037527;28;20446;-77
2021/06/21 10:16:22;;;;;;;1.50;1.10;;;38.10;39.90;;;;;;5037443;28;20533;-77
2021/06/21 10:18:49;;;;;;;2.33;0.87;;;37.90;40.90;;;;;;5036806;28;20565;-78
2021/06/21 10:21:16;;;;;;;1.40;1.30;;;37.40;42.20;;;;;;5036965;28;20442;-77
2021/06/21 10:23:43;;;;;;;1.13;1.03;;;37.30;41.50;;;;;;5037043;28;20438;-78
2021/06/21 10:26:12;;;;;;;2.10;1.20;;;37.70;41.30;;;;;;5037156;28;20553;-77
2021/06/21 10:28:39;;;;;;;1.20;1.10;;;37.90;43.30;;;;;;5036871;28;20862;-77
2021/06/21 10:31:06;;;;;;;2.10;1.67;;;37.60;42.90;;;;;;5036369;28;20554;-78
2021/06/21 10:33:35;;;;;;;2.07;1.50;;;37.00;44.50;;;;;;5036648;28;20461;-77
2021/06/21 10:36:05;;;;;;;1.23;1.13;;;36.30;44.50;;;;;;5036852;28;20473;-77
2021/06/21 10:38:31;;;;;;;1.70;1.43;;;35.00;45.60;;;;;;5036385;28;20487;-77
2021/06/21 10:41:02;;;;;;;1.70;1.20;;;33.70;50.70;;;;;;5035855;28;20445;-76
2021/06/21 10:43:50;;;;;;;1.93;1.27;;;33.00;50.60;;;;;;5036209;28;20456;-77
2021/06/21 10:46:25;;;;;;;1.63;1.20;;;31.80;52.10;;;;;;5036270;28;20801;-77
2021/06/21 10:49:43;;;;;;;1.73;1.30;;;30.40;56.00;;;;;;5035902;28;20974;-76
2021/06/21 10:52:36;;;;;;;4.03;1.70;;;30.10;57.80;;;;;;5035770;28;20445;-76
2021/06/21 10:55:37;;;;;;;3.47;1.57;;;29.80;57.20;;;;;;5034490;28;20490;-76
2021/06/21 10:58:07;;;;;;;3.13;1.30;;;29.80;58.70;;;;;;5036047;28;20478;-77
2021/06/21 11:00:37;;;;;;;1.93;1.20;;;30.00;56.80;;;;;;5035696;28;20497;-76
2021/06/21 11:03:25;;;;;;;2.17;1.60;;;30.10;56.40;;;;;;5035843;28;20451;-76
2021/06/21 11:05:53;;;;;;;1.63;1.53;;;30.20;56.30;;;;;;5035600;28;20486;-76
2021/06/21 11:08:21;;;;;;;1.10;0.97;;;30.10;54.10;;;;;;5035705;28;20529;-76
2021/06/21 11:10:50;;;;;;;1.53;1.43;;;30.20;59.20;;;;;;5035412;28;20622;-76
2021/06/21 11:13:42;;;;;;;1.40;1.30;;;30.40;56.50;;;;;;5035408;28;20542;-76
2021/06/21 11:16:25;;;;;;;1.90;1.40;;;30.40;55.20;;;;;;5035230;28;20968;-76
2021/06/21 11:19:30;;;;;;;1.73;1.47;;;30.20;57.30;;;;;;5035440;28;20810;-76
2021/06/21 11:21:58;;;;;;;1.40;1.30;;;30.10;59.90;;;;;;5035353;28;20525;-76
2021/06/21 11:24:47;;;;;;;1.10;1.10;;;30.10;58.70;;;;;;5035640;28;20505;-77
2021/06/21 11:27:16;;;;;;;1.67;1.27;;;30.20;56.20;;;;;;5035446;28;20445;-76
2021/06/21 11:29:44;;;;;;;1.60;1.50;;;30.30;55.10;;;;;;5035350;28;20455;-77
2021/06/21 11:32:14;;;;;;;1.10;1.00;;;30.20;57.40;;;;;;5034800;28;20454;-76
2021/06/21 11:34:49;;;;;;;1.90;1.00;;;30.20;56.40;;;;;;5035081;28;20877;-76
2021/06/21 11:37:34;;;;;;;1.30;1.17;;;29.90;56.30;;;;;;5035291;28;20477;-76
2021/06/21 11:40:22;;;;;;;2.20;1.70;;;29.70;56.10;;;;;;5035041;28;20454;-76
2021/06/21 11:43:14;;;;;;;1.40;1.23;;;29.60;56.50;;;;;;5024572;28;21010;-76
2021/06/21 11:45:50;;;;;;;2.27;1.40;;;29.50;57.40;;;;;;5035169;28;20553;-76
2021/06/21 11:48:24;;;;;;;1.40;1.30;;;29.40;55.20;;;;;;5035446;28;20483;-75
2021/06/21 11:50:51;;;;;;;1.83;1.63;;;29.10;56.50;;;;;;5035083;28;20445;-76
2021/06/21 11:53:18;;;;;;;1.77;1.50;;;29.10;59.40;;;;;;5035402;28;20446;-76
2021/06/21 11:55:45;;;;;;;2.70;1.73;;;29.20;59.80;;;;;;5035561;28;20508;-76
2021/06/21 11:58:12;;;;;;;1.30;1.20;;;29.50;57.90;;;;;;5035122;28;20482;-76
2021/06/21 12:00:39;;;;;;;1.77;1.67;;;29.20;57.80;;;;;;5034805;28;20453;-76
2021/06/21 12:03:08;;;;;;;1.77;1.53;;;28.70;60.90;;;;;;5035003;28;20452;-76
2021/06/21 12:05:37;;;;;;;1.70;1.60;;;28.70;64.80;;;;;;5034280;28;20479;-76
2021/06/21 12:08:14;;;;;;;2.60;1.37;;;28.70;60.20;;;;;;5035005;28;20442;-76
2021/06/21 12:10:41;;;;;;;1.97;1.87;;;28.60;67.10;;;;;;5034512;28;20447;-76
2021/06/21 12:13:08;;;;;;;1.80;1.47;;;28.50;65.50;;;;;;5034754;28;20446;-75
2021/06/21 12:15:38;;;;;;;2.67;1.57;;;28.40;65.90;;;;;;5034652;28;20554;-76
2021/06/21 12:18:05;;;;;;;1.63;1.53;;;28.30;62.70;;;;;;5034796;28;20485;-75
2021/06/21 12:20:33;;;;;;;1.70;1.60;;;28.40;64.20;;;;;;5034526;28;20847;-75
2021/06/21 12:23:02;;;;;;;2.33;1.20;;;28.40;63.60;;;;;;5034617;28;20502;-75
2021/06/21 12:25:31;;;;;;;1.50;1.40;;;28.50;66.10;;;;;;5034457;28;20551;-75
2021/06/21 12:28:13;;;;;;;1.40;1.30;;;28.80;63.70;;;;;;5034574;28;20544;-76
2021/06/21 12:30:43;;;;;;;1.50;1.40;;;29.00;64.50;;;;;;5034057;28;20949;-76
2021/06/21 12:33:31;;;;;;;1.70;1.60;;;28.80;66.50;;;;;;5034653;28;20450;-75
2021/06/21 12:36:24;;;;;;;1.60;1.50;;;28.40;65.80;;;;;;5035346;28;20506;-76
2021/06/21 12:39:01;;;;;;;1.60;1.50;;;28.40;64.00;;;;;;5034949;28;20529;-76
2021/06/21 12:41:29;;;;;;;1.60;1.50;;;28.20;64.10;;;;;;5033789;28;20509;-76
2021/06/21 12:44:01;;;;;;;1.53;1.43;;;28.00;62.50;;;;;;5033855;28;20473;-75
2021/06/21 12:46:30;;;;;;;1.73;1.30;;;27.60;65.30;;;;;;5033949;28;20450;-75
2021/06/21 12:48:58;;;;;;;1.67;1.40;;;27.30;68.40;;;;;;5033832;28;20974;-75
2021/06/21 12:51:26;;;;;;;3.17;2.80;;;27.20;69.60;;;;;;5033533;28;20797;-76
2021/06/21 12:53:55;;;;;;;6.43;3.00;;;27.10;69.70;;;;;;5033518;28;21008;-76
2021/06/21 12:56:28;;;;;;;3.10;2.33;;;26.80;72.80;;;;;;5033505;28;20457;-75
2021/06/21 12:58:55;;;;;;;3.10;1.77;;;26.60;74.10;;;;;;5033624;28;20498;-75
2021/06/21 13:01:29;;;;;;;1.40;1.30;;;26.30;74.10;;;;;;5033322;28;20442;-75
2021/06/21 13:03:59;;;;;;;3.60;1.50;;;26.30;77.80;;;;;;5033573;28;20478;-75